Weather at Paramudu Airport

Public forecast

Using degrees Celsius for public forecast. Weather courtesy of forecast.io.

Closest aviation weather report (METAR) to Paramudu Airport

Closest report is Brunei International Airport, 94.5 nm (174.9 km) NNW. Retrieved 2021/10/22 10:00 UTC (8 minutes ago):

WBSB 221000Z 31005KT 9999 FEW015 FEW016CB BKN300 29/25 Q1011 NOSIG

Closest aviation forecast (TAF) to Paramudu Airport

Closest forecast is Brunei International Airport, 94.5 nm (174.9 km) NNW. Retrieved 2021/10/22 06:12 UTC (4 hours ago):

TAF WBSB 220450Z 2206/2312 28010KT 9999 SCT015 FEW016CB TEMPO 2209/2212 7000 SHRA TSRA BECMG 2212/2214 20003KT SCT014 FEW015CB